sensor_id;sensor_type;location;lat;lon;timestamp;P1;durP1;ratioP1;P2;durP2;ratioP2
10343;SDS011;5217;43.960;10.954;2023-03-04T00:01:56;5.50;;;4.37;;
10343;SDS011;5217;43.960;10.954;2023-03-04T00:04:25;5.50;;;4.57;;
10343;SDS011;5217;43.960;10.954;2023-03-04T00:06:55;6.07;;;4.87;;
10343;SDS011;5217;43.960;10.954;2023-03-04T00:09:23;6.43;;;5.77;;
10343;SDS011;5217;43.960;10.954;2023-03-04T00:11:51;9.00;;;8.00;;
10343;SDS011;5217;43.960;10.954;2023-03-04T00:14:20;11.60;;;8.20;;
10343;SDS011;5217;43.960;10.954;2023-03-04T00:16:49;7.27;;;6.47;;
10343;SDS011;5217;43.960;10.954;2023-03-04T00:19:17;6.23;;;5.50;;
10343;SDS011;5217;43.960;10.954;2023-03-04T00:21:46;6.97;;;5.83;;
10343;SDS011;5217;43.960;10.954;2023-03-04T00:24:15;5.20;;;4.50;;
10343;SDS011;5217;43.960;10.954;2023-03-04T00:26:44;6.87;;;5.17;;
10343;SDS011;5217;43.960;10.954;2023-03-04T00:29:12;6.20;;;4.63;;
10343;SDS011;5217;43.960;10.954;2023-03-04T00:31:40;5.00;;;4.40;;
10343;SDS011;5217;43.960;10.954;2023-03-04T00:34:09;5.77;;;4.73;;
10343;SDS011;5217;43.960;10.954;2023-03-04T00:36:37;5.13;;;4.50;;
10343;SDS011;5217;43.960;10.954;2023-03-04T00:39:06;4.83;;;4.43;;
10343;SDS011;5217;43.960;10.954;2023-03-04T00:41:35;5.80;;;4.83;;
10343;SDS011;5217;43.960;10.954;2023-03-04T00:44:04;6.53;;;4.83;;
10343;SDS011;5217;43.960;10.954;2023-03-04T00:46:32;4.87;;;4.37;;
10343;SDS011;5217;43.960;10.954;2023-03-04T00:49:01;4.77;;;3.80;;
10343;SDS011;5217;43.960;10.954;2023-03-04T00:51:29;6.00;;;4.67;;
10343;SDS011;5217;43.960;10.954;2023-03-04T00:53:57;5.13;;;4.63;;
10343;SDS011;5217;43.960;10.954;2023-03-04T00:56:26;16.70;;;15.30;;
10343;SDS011;5217;43.960;10.954;2023-03-04T00:58:56;10.10;;;9.10;;
10343;SDS011;5217;43.960;10.954;2023-03-04T01:01:24;6.60;;;6.00;;
10343;SDS011;5217;43.960;10.954;2023-03-04T01:03:53;5.10;;;4.60;;
10343;SDS011;5217;43.960;10.954;2023-03-04T01:06:21;4.17;;;3.80;;
10343;SDS011;5217;43.960;10.954;2023-03-04T01:08:49;5.17;;;3.80;;
10343;SDS011;5217;43.960;10.954;2023-03-04T01:11:18;4.83;;;3.53;;
10343;SDS011;5217;43.960;10.954;2023-03-04T01:13:46;3.60;;;3.30;;
10343;SDS011;5217;43.960;10.954;2023-03-04T01:16:16;4.60;;;3.10;;
10343;SDS011;5217;43.960;10.954;2023-03-04T01:18:44;4.47;;;3.40;;
10343;SDS011;5217;43.960;10.954;2023-03-04T01:21:13;4.33;;;3.40;;
10343;SDS011;5217;43.960;10.954;2023-03-04T01:23:41;4.23;;;3.67;;
10343;SDS011;5217;43.960;10.954;2023-03-04T01:26:09;4.73;;;3.57;;
10343;SDS011;5217;43.960;10.954;2023-03-04T01:28:38;5.07;;;3.80;;
10343;SDS011;5217;43.960;10.954;2023-03-04T01:31:06;4.73;;;3.30;;
10343;SDS011;5217;43.960;10.954;2023-03-04T01:33:36;4.03;;;3.33;;
10343;SDS011;5217;43.960;10.954;2023-03-04T01:36:04;3.83;;;3.10;;
10343;SDS011;5217;43.960;10.954;2023-03-04T01:38:33;5.50;;;3.20;;
10343;SDS011;5217;43.960;10.954;2023-03-04T01:41:01;5.47;;;3.37;;
10343;SDS011;5217;43.960;10.954;2023-03-04T01:43:30;5.37;;;3.13;;
10343;SDS011;5217;43.960;10.954;2023-03-04T01:45:58;5.53;;;3.70;;
10343;SDS011;5217;43.960;10.954;2023-03-04T01:48:27;5.70;;;3.07;;
10343;SDS011;5217;43.960;10.954;2023-03-04T01:51:00;3.83;;;3.33;;
10343;SDS011;5217;43.960;10.954;2023-03-04T01:53:29;4.67;;;3.00;;
10343;SDS011;5217;43.960;10.954;2023-03-04T01:56:00;3.97;;;3.10;;
10343;SDS011;5217;43.960;10.954;2023-03-04T01:58:31;3.13;;;2.87;;
10343;SDS011;5217;43.960;10.954;2023-03-04T02:01:00;5.27;;;3.40;;
10343;SDS011;5217;43.960;10.954;2023-03-04T02:03:28;4.53;;;3.20;;
10343;SDS011;5217;43.960;10.954;2023-03-04T02:05:57;6.33;;;3.37;;
10343;SDS011;5217;43.960;10.954;2023-03-04T02:08:27;6.10;;;3.30;;
10343;SDS011;5217;43.960;10.954;2023-03-04T02:10:55;3.87;;;3.40;;
10343;SDS011;5217;43.960;10.954;2023-03-04T02:13:24;3.93;;;3.20;;
10343;SDS011;5217;43.960;10.954;2023-03-04T02:15:52;3.63;;;3.00;;
10343;SDS011;5217;43.960;10.954;2023-03-04T02:18:21;4.10;;;3.43;;
10343;SDS011;5217;43.960;10.954;2023-03-04T02:20:54;6.97;;;3.63;;
10343;SDS011;5217;43.960;10.954;2023-03-04T02:23:32;5.07;;;3.00;;
10343;SDS011;5217;43.960;10.954;2023-03-04T02:26:11;4.27;;;3.30;;
10343;SDS011;5217;43.960;10.954;2023-03-04T02:28:40;6.87;;;3.87;;
10343;SDS011;5217;43.960;10.954;2023-03-04T02:31:11;4.63;;;3.70;;
10343;SDS011;5217;43.960;10.954;2023-03-04T02:33:49;5.40;;;3.77;;
10343;SDS011;5217;43.960;10.954;2023-03-04T02:36:19;4.37;;;3.40;;
10343;SDS011;5217;43.960;10.954;2023-03-04T02:38:48;6.53;;;3.63;;
10343;SDS011;5217;43.960;10.954;2023-03-04T02:41:19;4.50;;;3.30;;
10343;SDS011;5217;43.960;10.954;2023-03-04T02:43:51;4.23;;;3.83;;
10343;SDS011;5217;43.960;10.954;2023-03-04T02:46:21;5.47;;;3.83;;
10343;SDS011;5217;43.960;10.954;2023-03-04T02:48:50;5.83;;;3.60;;
10343;SDS011;5217;43.960;10.954;2023-03-04T02:51:18;5.00;;;3.90;;
10343;SDS011;5217;43.960;10.954;2023-03-04T02:53:47;4.17;;;3.57;;
10343;SDS011;5217;43.960;10.954;2023-03-04T02:56:15;4.77;;;3.70;;
10343;SDS011;5217;43.960;10.954;2023-03-04T02:58:45;6.47;;;3.57;;
10343;SDS011;5217;43.960;10.954;2023-03-04T03:01:13;3.80;;;3.40;;
10343;SDS011;5217;43.960;10.954;2023-03-04T03:03:41;4.20;;;3.60;;
10343;SDS011;5217;43.960;10.954;2023-03-04T03:06:10;4.70;;;3.70;;
10343;SDS011;5217;43.960;10.954;2023-03-04T03:08:38;6.53;;;3.77;;
10343;SDS011;5217;43.960;10.954;2023-03-04T03:11:06;4.13;;;3.73;;
10343;SDS011;5217;43.960;10.954;2023-03-04T03:13:35;4.93;;;4.00;;
10343;SDS011;5217;43.960;10.954;2023-03-04T03:16:05;3.90;;;3.50;;
10343;SDS011;5217;43.960;10.954;2023-03-04T03:18:34;5.37;;;3.57;;
10343;SDS011;5217;43.960;10.954;2023-03-04T03:21:02;4.17;;;3.50;;
10343;SDS011;5217;43.960;10.954;2023-03-04T03:23:31;7.07;;;3.93;;
10343;SDS011;5217;43.960;10.954;2023-03-04T03:25:59;3.60;;;3.27;;
10343;SDS011;5217;43.960;10.954;2023-03-04T03:28:28;5.47;;;3.70;;
10343;SDS011;5217;43.960;10.954;2023-03-04T03:30:56;4.17;;;3.63;;
10343;SDS011;5217;43.960;10.954;2023-03-04T03:33:26;4.43;;;3.67;;
10343;SDS011;5217;43.960;10.954;2023-03-04T03:35:54;4.23;;;3.67;;
10343;SDS011;5217;43.960;10.954;2023-03-04T03:38:23;4.30;;;3.33;;
10343;SDS011;5217;43.960;10.954;2023-03-04T03:40:51;5.50;;;3.50;;
10343;SDS011;5217;43.960;10.954;2023-03-04T03:43:19;4.70;;;3.93;;
10343;SDS011;5217;43.960;10.954;2023-03-04T03:45:48;4.10;;;3.70;;
10343;SDS011;5217;43.960;10.954;2023-03-04T03:48:17;4.67;;;3.80;;
10343;SDS011;5217;43.960;10.954;2023-03-04T03:50:47;5.60;;;3.40;;
10343;SDS011;5217;43.960;10.954;2023-03-04T03:53:15;4.73;;;3.53;;
10343;SDS011;5217;43.960;10.954;2023-03-04T03:55:44;4.20;;;3.70;;
10343;SDS011;5217;43.960;10.954;2023-03-04T03:58:12;4.43;;;3.60;;
10343;SDS011;5217;43.960;10.954;2023-03-04T04:00:40;3.83;;;3.40;;
10343;SDS011;5217;43.960;10.954;2023-03-04T04:03:09;6.23;;;3.43;;
10343;SDS011;5217;43.960;10.954;2023-03-04T04:05:41;5.67;;;3.60;;
10343;SDS011;5217;43.960;10.954;2023-03-04T04:08:11;3.70;;;3.27;;
10343;SDS011;5217;43.960;10.954;2023-03-04T04:10:40;4.23;;;3.30;;
10343;SDS011;5217;43.960;10.954;2023-03-04T04:13:09;4.50;;;3.73;;
10343;SDS011;5217;43.960;10.954;2023-03-04T04:15:38;5.07;;;3.87;;
10343;SDS011;5217;43.960;10.954;2023-03-04T04:18:06;4.43;;;3.47;;
10343;SDS011;5217;43.960;10.954;2023-03-04T04:20:35;4.37;;;3.97;;
10343;SDS011;5217;43.960;10.954;2023-03-04T04:23:03;4.87;;;3.90;;
10343;SDS011;5217;43.960;10.954;2023-03-04T04:25:33;5.27;;;3.47;;
10343;SDS011;5217;43.960;10.954;2023-03-04T04:28:02;4.23;;;3.83;;
10343;SDS011;5217;43.960;10.954;2023-03-04T04:30:30;4.33;;;3.93;;
10343;SDS011;5217;43.960;10.954;2023-03-04T04:32:59;4.53;;;3.70;;
10343;SDS011;5217;43.960;10.954;2023-03-04T04:35:30;6.83;;;4.40;;
10343;SDS011;5217;43.960;10.954;2023-03-04T04:37:59;5.30;;;3.90;;
10343;SDS011;5217;43.960;10.954;2023-03-04T04:40:28;4.23;;;3.83;;
10343;SDS011;5217;43.960;10.954;2023-03-04T04:42:57;4.87;;;4.00;;
10343;SDS011;5217;43.960;10.954;2023-03-04T04:45:26;4.37;;;3.97;;
10343;SDS011;5217;43.960;10.954;2023-03-04T04:47:54;7.10;;;4.10;;
10343;SDS011;5217;43.960;10.954;2023-03-04T04:50:23;7.13;;;4.47;;
10343;SDS011;5217;43.960;10.954;2023-03-04T04:52:52;5.77;;;4.40;;
10343;SDS011;5217;43.960;10.954;2023-03-04T04:55:20;5.17;;;4.00;;
10343;SDS011;5217;43.960;10.954;2023-03-04T04:57:49;4.47;;;4.07;;
10343;SDS011;5217;43.960;10.954;2023-03-04T05:00:19;5.77;;;4.07;;
10343;SDS011;5217;43.960;10.954;2023-03-04T05:02:48;6.83;;;4.03;;
10343;SDS011;5217;43.960;10.954;2023-03-04T05:05:16;6.33;;;4.50;;
10343;SDS011;5217;43.960;10.954;2023-03-04T05:07:44;5.73;;;4.67;;
10343;SDS011;5217;43.960;10.954;2023-03-04T05:10:13;4.93;;;4.40;;
10343;SDS011;5217;43.960;10.954;2023-03-04T05:12:42;4.80;;;4.00;;
10343;SDS011;5217;43.960;10.954;2023-03-04T05:15:11;5.57;;;4.07;;
10343;SDS011;5217;43.960;10.954;2023-03-04T05:17:41;6.63;;;4.40;;
10343;SDS011;5217;43.960;10.954;2023-03-04T05:20:09;6.77;;;4.70;;
10343;SDS011;5217;43.960;10.954;2023-03-04T05:22:38;5.30;;;4.07;;
10343;SDS011;5217;43.960;10.954;2023-03-04T05:25:07;6.20;;;4.03;;
10343;SDS011;5217;43.960;10.954;2023-03-04T05:27:36;5.07;;;3.90;;
10343;SDS011;5217;43.960;10.954;2023-03-04T05:30:05;6.60;;;4.10;;
10343;SDS011;5217;43.960;10.954;2023-03-04T05:32:34;7.90;;;4.60;;
10343;SDS011;5217;43.960;10.954;2023-03-04T05:35:04;6.43;;;4.73;;
10343;SDS011;5217;43.960;10.954;2023-03-04T05:37:33;7.10;;;4.53;;
10343;SDS011;5217;43.960;10.954;2023-03-04T05:40:01;6.83;;;3.97;;
10343;SDS011;5217;43.960;10.954;2023-03-04T05:42:31;6.87;;;4.50;;
10343;SDS011;5217;43.960;10.954;2023-03-04T05:44:59;5.87;;;4.57;;
10343;SDS011;5217;43.960;10.954;2023-03-04T05:47:28;7.17;;;5.20;;
10343;SDS011;5217;43.960;10.954;2023-03-04T05:49:56;9.03;;;6.43;;
10343;SDS011;5217;43.960;10.954;2023-03-04T05:52:26;11.33;;;7.33;;
10343;SDS011;5217;43.960;10.954;2023-03-04T05:54:54;11.20;;;7.93;;
10343;SDS011;5217;43.960;10.954;2023-03-04T05:57:23;9.27;;;6.80;;
10343;SDS011;5217;43.960;10.954;2023-03-04T05:59:51;8.23;;;6.13;;
10343;SDS011;5217;43.960;10.954;2023-03-04T06:02:20;8.97;;;5.87;;
10343;SDS011;5217;43.960;10.954;2023-03-04T06:04:48;7.27;;;5.30;;
10343;SDS011;5217;43.960;10.954;2023-03-04T06:07:16;7.43;;;5.10;;
10343;SDS011;5217;43.960;10.954;2023-03-04T06:09:46;7.67;;;5.20;;
10343;SDS011;5217;43.960;10.954;2023-03-04T06:12:15;7.33;;;5.83;;
10343;SDS011;5217;43.960;10.954;2023-03-04T06:14:43;7.10;;;5.50;;
10343;SDS011;5217;43.960;10.954;2023-03-04T06:17:11;7.77;;;5.70;;
10343;SDS011;5217;43.960;10.954;2023-03-04T06:19:40;7.70;;;5.33;;
10343;SDS011;5217;43.960;10.954;2023-03-04T06:22:08;5.83;;;5.23;;
10343;SDS011;5217;43.960;10.954;2023-03-04T06:24:37;5.90;;;4.90;;
10343;SDS011;5217;43.960;10.954;2023-03-04T06:27:07;5.73;;;4.63;;
10343;SDS011;5217;43.960;10.954;2023-03-04T06:29:35;6.10;;;4.60;;
10343;SDS011;5217;43.960;10.954;2023-03-04T06:32:04;7.00;;;5.20;;
10343;SDS011;5217;43.960;10.954;2023-03-04T06:34:32;5.90;;;4.70;;
10343;SDS011;5217;43.960;10.954;2023-03-04T06:37:01;5.77;;;5.20;;
10343;SDS011;5217;43.960;10.954;2023-03-04T06:39:30;5.57;;;4.80;;
10343;SDS011;5217;43.960;10.954;2023-03-04T06:41:58;6.33;;;4.57;;
10343;SDS011;5217;43.960;10.954;2023-03-04T06:44:28;6.37;;;4.17;;
10343;SDS011;5217;43.960;10.954;2023-03-04T06:46:56;5.90;;;4.40;;
10343;SDS011;5217;43.960;10.954;2023-03-04T06:49:25;7.80;;;4.63;;
10343;SDS011;5217;43.960;10.954;2023-03-04T06:51:53;6.30;;;4.57;;
10343;SDS011;5217;43.960;10.954;2023-03-04T06:54:22;4.97;;;4.47;;
10343;SDS011;5217;43.960;10.954;2023-03-04T06:56:50;5.97;;;4.73;;
10343;SDS011;5217;43.960;10.954;2023-03-04T06:59:18;7.60;;;4.93;;
10343;SDS011;5217;43.960;10.954;2023-03-04T07:01:48;9.07;;;5.37;;
10343;SDS011;5217;43.960;10.954;2023-03-04T07:04:17;6.33;;;5.70;;
10343;SDS011;5217;43.960;10.954;2023-03-04T07:06:45;8.10;;;6.30;;
10343;SDS011;5217;43.960;10.954;2023-03-04T07:09:13;10.07;;;8.90;;
10343;SDS011;5217;43.960;10.954;2023-03-04T07:11:42;11.50;;;9.60;;
10343;SDS011;5217;43.960;10.954;2023-03-04T07:14:10;11.17;;;10.03;;
10343;SDS011;5217;43.960;10.954;2023-03-04T07:16:39;9.70;;;8.30;;
10343;SDS011;5217;43.960;10.954;2023-03-04T07:19:08;8.57;;;7.33;;
10343;SDS011;5217;43.960;10.954;2023-03-04T07:21:37;7.80;;;7.00;;
10343;SDS011;5217;43.960;10.954;2023-03-04T07:24:05;7.20;;;6.50;;
10343;SDS011;5217;43.960;10.954;2023-03-04T07:26:34;8.37;;;6.90;;
10343;SDS011;5217;43.960;10.954;2023-03-04T07:29:03;9.10;;;8.20;;
10343;SDS011;5217;43.960;10.954;2023-03-04T07:31:32;9.17;;;7.20;;
10343;SDS011;5217;43.960;10.954;2023-03-04T07:34:02;8.87;;;6.17;;
10343;SDS011;5217;43.960;10.954;2023-03-04T07:36:34;6.37;;;5.50;;
10343;SDS011;5217;43.960;10.954;2023-03-04T07:39:03;8.23;;;5.90;;
10343;SDS011;5217;43.960;10.954;2023-03-04T07:41:33;6.20;;;5.53;;
10343;SDS011;5217;43.960;10.954;2023-03-04T07:44:03;7.97;;;5.43;;
10343;SDS011;5217;43.960;10.954;2023-03-04T07:46:32;5.73;;;4.77;;
10343;SDS011;5217;43.960;10.954;2023-03-04T07:49:01;5.67;;;5.07;;
10343;SDS011;5217;43.960;10.954;2023-03-04T07:51:29;5.73;;;5.03;;
10343;SDS011;5217;43.960;10.954;2023-03-04T07:53:59;7.40;;;5.63;;
10343;SDS011;5217;43.960;10.954;2023-03-04T07:56:29;6.73;;;6.03;;
10343;SDS011;5217;43.960;10.954;2023-03-04T07:58:58;8.07;;;5.40;;
10343;SDS011;5217;43.960;10.954;2023-03-04T08:01:29;5.80;;;5.20;;
10343;SDS011;5217;43.960;10.954;2023-03-04T08:03:59;6.17;;;5.57;;
10343;SDS011;5217;43.960;10.954;2023-03-04T08:06:28;6.93;;;5.40;;
10343;SDS011;5217;43.960;10.954;2023-03-04T08:08:59;9.20;;;5.63;;
10343;SDS011;5217;43.960;10.954;2023-03-04T08:11:29;6.00;;;4.97;;
10343;SDS011;5217;43.960;10.954;2023-03-04T08:13:58;6.27;;;5.30;;
10343;SDS011;5217;43.960;10.954;2023-03-04T08:16:27;7.10;;;5.10;;
10343;SDS011;5217;43.960;10.954;2023-03-04T08:18:56;7.00;;;5.00;;
10343;SDS011;5217;43.960;10.954;2023-03-04T08:21:27;6.67;;;5.10;;
10343;SDS011;5217;43.960;10.954;2023-03-04T08:23:57;7.20;;;4.90;;
10343;SDS011;5217;43.960;10.954;2023-03-04T08:26:35;6.77;;;5.00;;
10343;SDS011;5217;43.960;10.954;2023-03-04T08:29:08;5.20;;;4.70;;
10343;SDS011;5217;43.960;10.954;2023-03-04T08:31:38;5.23;;;4.50;;
10343;SDS011;5217;43.960;10.954;2023-03-04T08:34:06;6.73;;;4.93;;
10343;SDS011;5217;43.960;10.954;2023-03-04T08:36:35;6.90;;;4.97;;
10343;SDS011;5217;43.960;10.954;2023-03-04T08:39:05;7.13;;;5.73;;
10343;SDS011;5217;43.960;10.954;2023-03-04T08:41:34;8.40;;;5.67;;
10343;SDS011;5217;43.960;10.954;2023-03-04T08:44:03;6.70;;;5.53;;
10343;SDS011;5217;43.960;10.954;2023-03-04T08:46:33;7.57;;;5.70;;
10343;SDS011;5217;43.960;10.954;2023-03-04T08:49:02;6.83;;;5.60;;
10343;SDS011;5217;43.960;10.954;2023-03-04T08:51:31;6.40;;;5.63;;
10343;SDS011;5217;43.960;10.954;2023-03-04T08:54:01;7.70;;;6.00;;
10343;SDS011;5217;43.960;10.954;2023-03-04T08:56:31;6.70;;;5.83;;
10343;SDS011;5217;43.960;10.954;2023-03-04T08:58:59;6.60;;;5.23;;
10343;SDS011;5217;43.960;10.954;2023-03-04T09:01:27;9.53;;;5.50;;
10343;SDS011;5217;43.960;10.954;2023-03-04T09:03:56;10.03;;;6.10;;
10343;SDS011;5217;43.960;10.954;2023-03-04T09:06:24;5.97;;;5.37;;
10343;SDS011;5217;43.960;10.954;2023-03-04T09:08:52;7.57;;;5.47;;
10343;SDS011;5217;43.960;10.954;2023-03-04T09:11:21;6.37;;;4.90;;
10343;SDS011;5217;43.960;10.954;2023-03-04T09:13:51;6.23;;;4.70;;
10343;SDS011;5217;43.960;10.954;2023-03-04T09:16:19;9.07;;;5.80;;
10343;SDS011;5217;43.960;10.954;2023-03-04T09:18:47;7.10;;;4.60;;
10343;SDS011;5217;43.960;10.954;2023-03-04T09:21:16;4.90;;;4.40;;
10343;SDS011;5217;43.960;10.954;2023-03-04T09:23:44;5.70;;;5.00;;
10343;SDS011;5217;43.960;10.954;2023-03-04T09:26:16;5.80;;;5.30;;
10343;SDS011;5217;43.960;10.954;2023-03-04T09:28:49;7.33;;;5.23;;
10343;SDS011;5217;43.960;10.954;2023-03-04T09:31:23;6.20;;;5.57;;
10343;SDS011;5217;43.960;10.954;2023-03-04T09:33:52;7.03;;;5.37;;
10343;SDS011;5217;43.960;10.954;2023-03-04T09:36:23;6.53;;;5.13;;
10343;SDS011;5217;43.960;10.954;2023-03-04T09:38:51;8.70;;;7.20;;
10343;SDS011;5217;43.960;10.954;2023-03-04T09:41:20;11.33;;;8.13;;
10343;SDS011;5217;43.960;10.954;2023-03-04T09:43:51;8.30;;;6.40;;
10343;SDS011;5217;43.960;10.954;2023-03-04T09:46:24;7.30;;;6.20;;
10343;SDS011;5217;43.960;10.954;2023-03-04T09:48:59;10.67;;;6.13;;
10343;SDS011;5217;43.960;10.954;2023-03-04T09:51:35;6.53;;;5.00;;
10343;SDS011;5217;43.960;10.954;2023-03-04T09:54:13;6.43;;;4.70;;
10343;SDS011;5217;43.960;10.954;2023-03-04T09:56:48;5.32;;;4.30;;
10343;SDS011;5217;43.960;10.954;2023-03-04T09:59:21;5.80;;;4.43;;
10343;SDS011;5217;43.960;10.954;2023-03-04T10:01:55;6.07;;;4.15;;
10343;SDS011;5217;43.960;10.954;2023-03-04T10:04:29;6.05;;;4.35;;
10343;SDS011;5217;43.960;10.954;2023-03-04T10:07:01;8.20;;;5.07;;
10343;SDS011;5217;43.960;10.954;2023-03-04T10:09:34;8.43;;;5.38;;
10343;SDS011;5217;43.960;10.954;2023-03-04T10:12:11;8.55;;;5.30;;
10343;SDS011;5217;43.960;10.954;2023-03-04T10:14:42;9.60;;;5.05;;
10343;SDS011;5217;43.960;10.954;2023-03-04T10:17:15;7.38;;;4.13;;
10343;SDS011;5217;43.960;10.954;2023-03-04T10:19:50;6.68;;;4.00;;
10343;SDS011;5217;43.960;10.954;2023-03-04T10:22:26;7.47;;;4.00;;
10343;SDS011;5217;43.960;10.954;2023-03-04T10:25:00;4.63;;;3.67;;
10343;SDS011;5217;43.960;10.954;2023-03-04T10:27:41;4.88;;;3.85;;
10343;SDS011;5217;43.960;10.954;2023-03-04T10:30:12;6.07;;;4.05;;
10343;SDS011;5217;43.960;10.954;2023-03-04T10:32:51;5.68;;;3.97;;
10343;SDS011;5217;43.960;10.954;2023-03-04T10:35:21;6.55;;;3.88;;
10343;SDS011;5217;43.960;10.954;2023-03-04T10:37:54;8.05;;;3.50;;
10343;SDS011;5217;43.960;10.954;2023-03-04T10:40:28;8.75;;;3.97;;
10343;SDS011;5217;43.960;10.954;2023-03-04T10:43:03;7.35;;;4.50;;
10343;SDS011;5217;43.960;10.954;2023-03-04T10:45:36;8.25;;;4.22;;
10343;SDS011;5217;43.960;10.954;2023-03-04T10:48:08;6.70;;;4.45;;
10343;SDS011;5217;43.960;10.954;2023-03-04T10:50:46;5.65;;;3.60;;
10343;SDS011;5217;43.960;10.954;2023-03-04T10:55:59;7.53;;;3.65;;
10343;SDS011;5217;43.960;10.954;2023-03-04T10:58:28;7.18;;;3.53;;
10343;SDS011;5217;43.960;10.954;2023-03-04T11:01:01;5.97;;;4.10;;
10343;SDS011;5217;43.960;10.954;2023-03-04T11:03:33;6.82;;;4.55;;
10343;SDS011;5217;43.960;10.954;2023-03-04T11:06:10;6.25;;;4.22;;
10343;SDS011;5217;43.960;10.954;2023-03-04T11:08:44;5.53;;;4.18;;
10343;SDS011;5217;43.960;10.954;2023-03-04T11:11:23;5.80;;;3.60;;
10343;SDS011;5217;43.960;10.954;2023-03-04T11:13:55;5.38;;;3.95;;
10343;SDS011;5217;43.960;10.954;2023-03-04T11:16:27;6.65;;;3.13;;
10343;SDS011;5217;43.960;10.954;2023-03-04T11:18:59;8.20;;;4.43;;
10343;SDS011;5217;43.960;10.954;2023-03-04T11:21:33;6.32;;;4.10;;
10343;SDS011;5217;43.960;10.954;2023-03-04T11:24:08;6.00;;;3.67;;
10343;SDS011;5217;43.960;10.954;2023-03-04T11:26:55;4.57;;;3.70;;
10343;SDS011;5217;43.960;10.954;2023-03-04T11:29:29;6.68;;;4.38;;
10343;SDS011;5217;43.960;10.954;2023-03-04T11:32:03;11.48;;;8.75;;
10343;SDS011;5217;43.960;10.954;2023-03-04T11:34:40;9.18;;;6.22;;
10343;SDS011;5217;43.960;10.954;2023-03-04T11:37:15;7.30;;;5.35;;
10343;SDS011;5217;43.960;10.954;2023-03-04T11:39:51;5.45;;;4.32;;
10343;SDS011;5217;43.960;10.954;2023-03-04T11:42:27;11.45;;;7.45;;
10343;SDS011;5217;43.960;10.954;2023-03-04T11:45:02;7.05;;;6.35;;
10343;SDS011;5217;43.960;10.954;2023-03-04T11:47:46;6.63;;;4.93;;
10343;SDS011;5217;43.960;10.954;2023-03-04T11:50:26;4.85;;;4.03;;
10343;SDS011;5217;43.960;10.954;2023-03-04T11:53:04;4.78;;;3.90;;
10343;SDS011;5217;43.960;10.954;2023-03-04T11:55:49;4.75;;;3.65;;
10343;SDS011;5217;43.960;10.954;2023-03-04T11:58:42;5.47;;;3.75;;
10343;SDS011;5217;43.960;10.954;2023-03-04T12:01:21;7.10;;;3.70;;
10343;SDS011;5217;43.960;10.954;2023-03-04T12:04:06;3.53;;;3.22;;
10343;SDS011;5217;43.960;10.954;2023-03-04T12:06:51;5.68;;;4.32;;
10343;SDS011;5217;43.960;10.954;2023-03-04T12:09:36;7.47;;;4.05;;
10343;SDS011;5217;43.960;10.954;2023-03-04T12:12:21;4.80;;;3.85;;
10343;SDS011;5217;43.960;10.954;2023-03-04T12:15:01;10.25;;;4.15;;
10343;SDS011;5217;43.960;10.954;2023-03-04T12:17:50;8.05;;;3.78;;
10343;SDS011;5217;43.960;10.954;2023-03-04T12:20:38;5.80;;;3.60;;
10343;SDS011;5217;43.960;10.954;2023-03-04T12:23:19;5.68;;;3.25;;
10343;SDS011;5217;43.960;10.954;2023-03-04T12:26:01;5.22;;;3.30;;
10343;SDS011;5217;43.960;10.954;2023-03-04T12:28:39;5.20;;;3.38;;
10343;SDS011;5217;43.960;10.954;2023-03-04T12:31:27;5.30;;;3.70;;
10343;SDS011;5217;43.960;10.954;2023-03-04T12:34:25;9.00;;;3.50;;
10343;SDS011;5217;43.960;10.954;2023-03-04T12:37:17;5.95;;;3.15;;
10343;SDS011;5217;43.960;10.954;2023-03-04T12:40:21;3.95;;;2.83;;
10343;SDS011;5217;43.960;10.954;2023-03-04T12:43:06;5.22;;;3.20;;
10343;SDS011;5217;43.960;10.954;2023-03-04T12:45:46;4.75;;;3.30;;
10343;SDS011;5217;43.960;10.954;2023-03-04T12:48:23;4.90;;;3.42;;
10343;SDS011;5217;43.960;10.954;2023-03-04T12:51:00;5.57;;;3.38;;
10343;SDS011;5217;43.960;10.954;2023-03-04T12:53:38;6.07;;;3.10;;
10343;SDS011;5217;43.960;10.954;2023-03-04T12:56:20;5.97;;;3.55;;
10343;SDS011;5217;43.960;10.954;2023-03-04T12:58:52;4.65;;;3.20;;
10343;SDS011;5217;43.960;10.954;2023-03-04T13:01:24;6.30;;;3.70;;
10343;SDS011;5217;43.960;10.954;2023-03-04T13:03:57;6.47;;;4.40;;
10343;SDS011;5217;43.960;10.954;2023-03-04T13:06:38;6.80;;;3.60;;
10343;SDS011;5217;43.960;10.954;2023-03-04T13:09:14;4.55;;;3.70;;
10343;SDS011;5217;43.960;10.954;2023-03-04T13:11:52;4.72;;;3.80;;
10343;SDS011;5217;43.960;10.954;2023-03-04T13:14:29;6.25;;;4.82;;
10343;SDS011;5217;43.960;10.954;2023-03-04T13:17:17;5.40;;;3.80;;
10343;SDS011;5217;43.960;10.954;2023-03-04T13:20:20;8.65;;;3.90;;
10343;SDS011;5217;43.960;10.954;2023-03-04T13:22:52;4.95;;;3.65;;
10343;SDS011;5217;43.960;10.954;2023-03-04T13:25:28;4.10;;;3.53;;
10343;SDS011;5217;43.960;10.954;2023-03-04T13:33:53;6.80;;;4.03;;
10343;SDS011;5217;43.960;10.954;2023-03-04T13:36:28;5.70;;;4.13;;
10343;SDS011;5217;43.960;10.954;2023-03-04T13:39:23;4.25;;;3.30;;
10343;SDS011;5217;43.960;10.954;2023-03-04T13:41:54;5.55;;;3.13;;
10343;SDS011;5217;43.960;10.954;2023-03-04T13:44:35;4.45;;;3.28;;
10343;SDS011;5217;43.960;10.954;2023-03-04T13:47:32;5.70;;;3.60;;
10343;SDS011;5217;43.960;10.954;2023-03-04T14:01:57;5.85;;;3.40;;
10343;SDS011;5217;43.960;10.954;2023-03-04T14:04:28;5.07;;;3.20;;
10343;SDS011;5217;43.960;10.954;2023-03-04T14:06:59;5.05;;;3.28;;
10343;SDS011;5217;43.960;10.954;2023-03-04T14:09:30;6.68;;;3.53;;
10343;SDS011;5217;43.960;10.954;2023-03-04T14:12:01;3.72;;;3.20;;
10343;SDS011;5217;43.960;10.954;2023-03-04T14:14:34;5.15;;;3.08;;
10343;SDS011;5217;43.960;10.954;2023-03-04T14:17:14;3.78;;;3.35;;
10343;SDS011;5217;43.960;10.954;2023-03-04T14:19:46;4.03;;;3.10;;
10343;SDS011;5217;43.960;10.954;2023-03-04T14:22:23;5.03;;;3.70;;
10343;SDS011;5217;43.960;10.954;2023-03-04T14:25:00;5.65;;;3.65;;
10343;SDS011;5217;43.960;10.954;2023-03-04T14:27:30;5.72;;;4.65;;
10343;SDS011;5217;43.960;10.954;2023-03-04T14:30:03;9.50;;;6.43;;
10343;SDS011;5217;43.960;10.954;2023-03-04T14:32:34;7.07;;;6.38;;
10343;SDS011;5217;43.960;10.954;2023-03-04T14:35:03;5.13;;;4.57;;
10343;SDS011;5217;43.960;10.954;2023-03-04T14:37:35;7.05;;;4.05;;
10343;SDS011;5217;43.960;10.954;2023-03-04T14:40:11;7.38;;;3.92;;
10343;SDS011;5217;43.960;10.954;2023-03-04T14:42:47;6.20;;;4.82;;
10343;SDS011;5217;43.960;10.954;2023-03-04T14:45:20;5.40;;;4.70;;
10343;SDS011;5217;43.960;10.954;2023-03-04T14:47:51;7.18;;;6.25;;
10343;SDS011;5217;43.960;10.954;2023-03-04T14:50:22;8.60;;;7.55;;
10343;SDS011;5217;43.960;10.954;2023-03-04T14:53:03;8.13;;;6.72;;
10343;SDS011;5217;43.960;10.954;2023-03-04T14:55:52;7.97;;;6.60;;
10343;SDS011;5217;43.960;10.954;2023-03-04T14:58:23;7.43;;;6.20;;
10343;SDS011;5217;43.960;10.954;2023-03-04T15:01:06;5.75;;;4.45;;
10343;SDS011;5217;43.960;10.954;2023-03-04T15:03:43;4.78;;;4.35;;
10343;SDS011;5217;43.960;10.954;2023-03-04T15:06:20;7.13;;;5.80;;
10343;SDS011;5217;43.960;10.954;2023-03-04T15:08:53;8.25;;;5.07;;
10343;SDS011;5217;43.960;10.954;2023-03-04T15:11:24;6.07;;;5.03;;
10343;SDS011;5217;43.960;10.954;2023-03-04T15:13:55;6.63;;;4.88;;
10343;SDS011;5217;43.960;10.954;2023-03-04T15:16:25;7.07;;;5.60;;
10343;SDS011;5217;43.960;10.954;2023-03-04T15:18:58;9.07;;;5.43;;
10343;SDS011;5217;43.960;10.954;2023-03-04T15:21:30;5.93;;;4.22;;
10343;SDS011;5217;43.960;10.954;2023-03-04T15:24:02;8.30;;;4.75;;
10343;SDS011;5217;43.960;10.954;2023-03-04T15:26:32;7.47;;;4.10;;
10343;SDS011;5217;43.960;10.954;2023-03-04T15:29:08;5.35;;;3.60;;
10343;SDS011;5217;43.960;10.954;2023-03-04T15:31:41;6.00;;;4.35;;
10343;SDS011;5217;43.960;10.954;2023-03-04T15:34:12;12.23;;;6.85;;
10343;SDS011;5217;43.960;10.954;2023-03-04T15:36:41;13.13;;;9.45;;